ニューヨーク/JFK の空港の天気 - METARとTAF

ジョン・F・ケネディ国際空港 ( KJFK / JFK ) - アメリカ合衆国 ニューヨーク州ニューヨーク
飛行場実況気象(Metar)
観測時間03/30 07:51 EDT (03/30 11:51 UTC)
風向・風速北北東 4m/s
視程10km以上
天気現象
少しの雲 雲底高度 5180m
全天の4割程度の雲 雲底高度 9750m
気温4.4℃
湿度50%
気圧1025hPa
METARKJFK 301151Z 03008KT 10SM FEW170 SCT320 04/M05 A3027 RMK AO2 SLP250 T00441050 10050 20028 51012 $
過去の天気等 Google飛行場航空写真 Wunderground天気予報

過去48時間のMETAR

飛行場予報(TAF)
発表時間: 3/30 07:31 EDT (3/30 11:31 UTC)
予報対象時間: 30日8時 EDT ~ 31日14時 EDT
風向・風速北 4m/s
視程10km以上
少しの雲 雲底高度 6,100m
30日14時 EDT から
風向・風速南 4m/s
視程10km以上
少しの雲 雲底高度 1,830m
全天の8割程度の雲 雲底高度 4,570m
31日2時 EDT から
風向・風速南南東 3m/s
視程10km以上
全天の8割程度の雲 雲底高度 910m
31日6時 EDT から
風向・風速東南東 5m/s
視程8,050m
天気現象弱い雨
全天の8割程度の雲 雲底高度 300m
31日11時 EDT から
風向・風速東南東 7m/s 瞬間風速 10m/s
視程3,220m
天気現象弱い雨
全天の8割程度の雲 雲底高度 150m
KJFK 301131Z 3012/3118 01008KT P6SM FEW200
FM301800 19007KT P6SM FEW060 BKN150
FM310600 15006KT P6SM BKN030
FM311000 11010KT 5SM -RA BKN010
FM311500 11014G20KT 2SM -RA BKN005